sensor_id;sensor_type;location;lat;lon;timestamp;pressure;altitude;pressure_sealevel;temperature;humidity
69855;BME280;57146;48.140;16.304;2023-05-01T00:00:25;99712.69;;;9.68;66.71
69855;BME280;57146;48.140;16.304;2023-05-01T00:02:53;99717.97;;;9.68;66.60
69855;BME280;57146;48.140;16.304;2023-05-01T00:05:21;99708.16;;;9.73;66.62
69855;BME280;57146;48.140;16.304;2023-05-01T00:07:48;99712.63;;;9.73;66.24
69855;BME280;57146;48.140;16.304;2023-05-01T00:10:23;99709.22;;;9.72;65.96
69855;BME280;57146;48.140;16.304;2023-05-01T00:12:49;99703.97;;;9.72;66.66
69855;BME280;57146;48.140;16.304;2023-05-01T00:15:17;99702.88;;;9.54;66.84
69855;BME280;57146;48.140;16.304;2023-05-01T00:17:43;99707.63;;;9.52;66.83
69855;BME280;57146;48.140;16.304;2023-05-01T00:20:10;99703.09;;;9.34;66.92
69855;BME280;57146;48.140;16.304;2023-05-01T00:22:38;99700.25;;;9.30;67.65
69855;BME280;57146;48.140;16.304;2023-05-01T00:25:05;99698.91;;;9.33;67.31
69855;BME280;57146;48.140;16.304;2023-05-01T00:27:32;99697.06;;;9.33;67.25
69855;BME280;57146;48.140;16.304;2023-05-01T00:30:00;99695.28;;;9.29;67.41
69855;BME280;57146;48.140;16.304;2023-05-01T00:32:27;99695.06;;;9.25;67.38
69855;BME280;57146;48.140;16.304;2023-05-01T00:34:55;99692.44;;;9.25;67.40
69855;BME280;57146;48.140;16.304;2023-05-01T00:37:23;99693.47;;;9.24;67.56
69855;BME280;57146;48.140;16.304;2023-05-01T00:40:15;99692.00;;;9.18;67.52
69855;BME280;57146;48.140;16.304;2023-05-01T00:43:07;99690.47;;;9.12;67.24
69855;BME280;57146;48.140;16.304;2023-05-01T00:45:34;99691.56;;;9.11;67.34
69855;BME280;57146;48.140;16.304;2023-05-01T00:48:02;99686.06;;;9.07;67.81
69855;BME280;57146;48.140;16.304;2023-05-01T00:50:31;99684.22;;;9.08;67.82
69855;BME280;57146;48.140;16.304;2023-05-01T00:52:58;99685.50;;;9.10;67.46
69855;BME280;57146;48.140;16.304;2023-05-01T00:55:30;99694.72;;;9.08;67.34
69855;BME280;57146;48.140;16.304;2023-05-01T00:57:59;99684.59;;;8.96;67.46
69855;BME280;57146;48.140;16.304;2023-05-01T01:00:28;99678.56;;;8.72;67.96
69855;BME280;57146;48.140;16.304;2023-05-01T01:02:57;99683.50;;;8.73;68.50
69855;BME280;57146;48.140;16.304;2023-05-01T01:05:26;99674.53;;;8.79;68.75
69855;BME280;57146;48.140;16.304;2023-05-01T01:08:19;99689.13;;;8.61;68.72
69855;BME280;57146;48.140;16.304;2023-05-01T01:10:53;99687.31;;;8.57;68.80
69855;BME280;57146;48.140;16.304;2023-05-01T01:13:33;99689.06;;;8.32;69.24
69855;BME280;57146;48.140;16.304;2023-05-01T01:22:04;99680.69;;;8.30;69.69
69855;BME280;57146;48.140;16.304;2023-05-01T01:35:37;99667.38;;;8.56;68.84
69855;BME280;57146;48.140;16.304;2023-05-01T01:38:15;99673.72;;;8.50;68.44
69855;BME280;57146;48.140;16.304;2023-05-01T01:40:56;99668.53;;;8.45;68.37
69855;BME280;57146;48.140;16.304;2023-05-01T01:43:26;99664.63;;;8.42;68.63
69855;BME280;57146;48.140;16.304;2023-05-01T01:46:01;99662.81;;;8.32;68.60
69855;BME280;57146;48.140;16.304;2023-05-01T01:48:41;99664.19;;;8.25;68.78
69855;BME280;57146;48.140;16.304;2023-05-01T01:51:13;99666.34;;;8.23;68.95
69855;BME280;57146;48.140;16.304;2023-05-01T01:54:10;99669.81;;;8.13;68.94
69855;BME280;57146;48.140;16.304;2023-05-01T01:56:40;99654.63;;;8.10;69.38
69855;BME280;57146;48.140;16.304;2023-05-01T01:59:09;99663.00;;;8.12;69.26
69855;BME280;57146;48.140;16.304;2023-05-01T02:01:38;99654.66;;;8.05;69.28
69855;BME280;57146;48.140;16.304;2023-05-01T02:04:32;99663.38;;;7.95;69.35
69855;BME280;57146;48.140;16.304;2023-05-01T02:07:02;99664.94;;;7.96;69.33
69855;BME280;57146;48.140;16.304;2023-05-01T02:09:30;99662.06;;;7.92;69.55
69855;BME280;57146;48.140;16.304;2023-05-01T02:12:01;99662.22;;;7.67;69.91
69855;BME280;57146;48.140;16.304;2023-05-01T02:14:33;99668.06;;;7.49;70.64
69855;BME280;57146;48.140;16.304;2023-05-01T02:17:01;99656.56;;;7.44;71.56
69855;BME280;57146;48.140;16.304;2023-05-01T02:19:33;99646.84;;;7.50;71.03
69855;BME280;57146;48.140;16.304;2023-05-01T02:22:01;99644.22;;;7.55;70.76
69855;BME280;57146;48.140;16.304;2023-05-01T02:24:32;99644.50;;;7.49;71.06
69855;BME280;57146;48.140;16.304;2023-05-01T02:27:07;99643.97;;;7.52;70.85
69855;BME280;57146;48.140;16.304;2023-05-01T02:29:36;99644.22;;;7.50;71.04
69855;BME280;57146;48.140;16.304;2023-05-01T02:32:05;99638.47;;;7.48;71.04
69855;BME280;57146;48.140;16.304;2023-05-01T02:34:35;99632.72;;;7.46;71.26
69855;BME280;57146;48.140;16.304;2023-05-01T02:37:05;99628.56;;;7.40;71.33
69855;BME280;57146;48.140;16.304;2023-05-01T02:39:34;99626.75;;;7.40;71.04
69855;BME280;57146;48.140;16.304;2023-05-01T02:42:02;99630.38;;;7.44;70.74
69855;BME280;57146;48.140;16.304;2023-05-01T02:44:38;99627.47;;;7.46;70.79
69855;BME280;57146;48.140;16.304;2023-05-01T02:47:09;99624.06;;;7.51;70.61
69855;BME280;57146;48.140;16.304;2023-05-01T02:49:40;99625.88;;;7.55;70.39
69855;BME280;57146;48.140;16.304;2023-05-01T02:52:08;99624.03;;;7.56;70.62
69855;BME280;57146;48.140;16.304;2023-05-01T02:54:37;99617.47;;;7.53;70.05
69855;BME280;57146;48.140;16.304;2023-05-01T02:57:06;99622.53;;;7.44;70.26
69855;BME280;57146;48.140;16.304;2023-05-01T02:59:35;99623.09;;;7.36;70.60
69855;BME280;57146;48.140;16.304;2023-05-01T03:02:02;99623.91;;;7.27;70.99
69855;BME280;57146;48.140;16.304;2023-05-01T03:04:29;99632.56;;;7.22;71.17
69855;BME280;57146;48.140;16.304;2023-05-01T03:06:56;99625.25;;;7.19;71.22
69855;BME280;57146;48.140;16.304;2023-05-01T03:09:25;99616.88;;;7.17;71.42
69855;BME280;57146;48.140;16.304;2023-05-01T03:11:52;99617.94;;;7.11;71.47
69855;BME280;57146;48.140;16.304;2023-05-01T03:14:20;99616.91;;;7.12;71.45
69855;BME280;57146;48.140;16.304;2023-05-01T03:16:48;99612.69;;;7.11;71.39
69855;BME280;57146;48.140;16.304;2023-05-01T03:19:15;99617.69;;;7.07;71.30
69855;BME280;57146;48.140;16.304;2023-05-01T03:21:44;99621.91;;;7.03;71.44
69855;BME280;57146;48.140;16.304;2023-05-01T03:24:10;99618.50;;;7.03;71.29
69855;BME280;57146;48.140;16.304;2023-05-01T03:27:01;99614.31;;;6.96;71.66
69855;BME280;57146;48.140;16.304;2023-05-01T03:29:30;99623.75;;;6.98;71.53
69855;BME280;57146;48.140;16.304;2023-05-01T03:31:57;99618.00;;;6.95;71.75
69855;BME280;57146;48.140;16.304;2023-05-01T03:34:24;99620.91;;;6.89;71.78
69855;BME280;57146;48.140;16.304;2023-05-01T03:36:54;99620.91;;;6.84;71.82
69855;BME280;57146;48.140;16.304;2023-05-01T03:39:22;99624.06;;;6.81;71.69
69855;BME280;57146;48.140;16.304;2023-05-01T03:42:10;99617.53;;;6.78;72.31
69855;BME280;57146;48.140;16.304;2023-05-01T03:44:40;99616.75;;;6.72;72.50
69855;BME280;57146;48.140;16.304;2023-05-01T03:47:07;99620.16;;;6.68;72.49
69855;BME280;57146;48.140;16.304;2023-05-01T03:49:38;99616.25;;;6.65;72.75
69855;BME280;57146;48.140;16.304;2023-05-01T03:52:06;99616.78;;;6.62;72.98
69855;BME280;57146;48.140;16.304;2023-05-01T03:54:34;99617.06;;;6.56;73.20
69855;BME280;57146;48.140;16.304;2023-05-01T03:57:22;99618.59;;;6.57;73.23
69855;BME280;57146;48.140;16.304;2023-05-01T03:59:51;99616.78;;;6.52;73.68
69855;BME280;57146;48.140;16.304;2023-05-01T04:02:20;99618.59;;;6.57;73.35
69855;BME280;57146;48.140;16.304;2023-05-01T04:05:15;99618.63;;;6.46;73.35
69855;BME280;57146;48.140;16.304;2023-05-01T04:07:48;99623.59;;;6.33;74.17
69855;BME280;57146;48.140;16.304;2023-05-01T04:10:16;99617.06;;;6.40;74.15
69855;BME280;57146;48.140;16.304;2023-05-01T04:12:51;99619.69;;;6.45;73.98
69855;BME280;57146;48.140;16.304;2023-05-01T04:15:20;99620.72;;;6.50;74.13
69855;BME280;57146;48.140;16.304;2023-05-01T04:17:47;99616.00;;;6.52;73.66
69855;BME280;57146;48.140;16.304;2023-05-01T04:20:15;99615.47;;;6.50;74.37
69855;BME280;57146;48.140;16.304;2023-05-01T04:22:43;99609.44;;;6.54;73.95
69855;BME280;57146;48.140;16.304;2023-05-01T04:25:10;99616.53;;;6.59;73.87
69855;BME280;57146;48.140;16.304;2023-05-01T04:27:37;99612.06;;;6.59;73.70
69855;BME280;57146;48.140;16.304;2023-05-01T04:30:04;99607.88;;;6.63;73.91
69855;BME280;57146;48.140;16.304;2023-05-01T04:32:35;99609.69;;;6.68;74.15
69855;BME280;57146;48.140;16.304;2023-05-01T04:35:02;99616.22;;;6.70;74.07
69855;BME280;57146;48.140;16.304;2023-05-01T04:37:30;99611.53;;;6.72;74.13
69855;BME280;57146;48.140;16.304;2023-05-01T04:39:56;99626.16;;;6.79;74.78
69855;BME280;57146;48.140;16.304;2023-05-01T04:42:32;99614.41;;;6.66;73.16
69855;BME280;57146;48.140;16.304;2023-05-01T04:44:59;99621.25;;;6.52;73.69
69855;BME280;57146;48.140;16.304;2023-05-01T04:47:26;99620.47;;;6.41;73.90
69855;BME280;57146;48.140;16.304;2023-05-01T04:49:53;99619.66;;;6.51;74.45
69855;BME280;57146;48.140;16.304;2023-05-01T04:52:20;99620.44;;;6.61;74.56
69855;BME280;57146;48.140;16.304;2023-05-01T04:54:52;99614.41;;;6.76;74.45
69855;BME280;57146;48.140;16.304;2023-05-01T04:57:22;99620.91;;;6.89;74.29
69855;BME280;57146;48.140;16.304;2023-05-01T04:59:51;99606.47;;;7.02;74.47
69855;BME280;57146;48.140;16.304;2023-05-01T05:02:18;99611.19;;;7.05;74.39
69855;BME280;57146;48.140;16.304;2023-05-01T05:05:10;99610.63;;;7.13;74.46
69855;BME280;57146;48.140;16.304;2023-05-01T05:07:39;99606.38;;;7.22;74.34
69855;BME280;57146;48.140;16.304;2023-05-01T05:10:25;99616.31;;;7.30;74.02
69855;BME280;57146;48.140;16.304;2023-05-01T05:13:13;99618.63;;;7.37;73.86
69855;BME280;57146;48.140;16.304;2023-05-01T05:15:40;99610.19;;;7.45;74.19
69855;BME280;57146;48.140;16.304;2023-05-01T05:18:10;99613.88;;;7.44;74.05
69855;BME280;57146;48.140;16.304;2023-05-01T05:20:37;99627.47;;;7.51;74.09
69855;BME280;57146;48.140;16.304;2023-05-01T05:23:04;99618.00;;;7.55;74.01
69855;BME280;57146;48.140;16.304;2023-05-01T05:25:33;99620.88;;;7.59;74.15
69855;BME280;57146;48.140;16.304;2023-05-01T05:28:02;99622.13;;;7.66;74.04
69855;BME280;57146;48.140;16.304;2023-05-01T05:30:30;99618.69;;;7.76;73.87
69855;BME280;57146;48.140;16.304;2023-05-01T05:32:59;99619.38;;;7.87;73.74
69855;BME280;57146;48.140;16.304;2023-05-01T05:35:26;99625.66;;;7.91;73.64
69855;BME280;57146;48.140;16.304;2023-05-01T05:37:54;99623.75;;;8.02;73.21
69855;BME280;57146;48.140;16.304;2023-05-01T05:40:22;99627.84;;;8.13;72.90
69855;BME280;57146;48.140;16.304;2023-05-01T05:42:56;99623.06;;;8.20;72.77
69855;BME280;57146;48.140;16.304;2023-05-01T05:45:26;99626.16;;;8.27;72.99
69855;BME280;57146;48.140;16.304;2023-05-01T05:47:53;99625.81;;;8.39;72.17
69855;BME280;57146;48.140;16.304;2023-05-01T05:50:20;99623.94;;;8.45;71.54
69855;BME280;57146;48.140;16.304;2023-05-01T05:52:48;99618.41;;;8.46;70.13
69855;BME280;57146;48.140;16.304;2023-05-01T05:55:17;99615.78;;;8.46;69.44
69855;BME280;57146;48.140;16.304;2023-05-01T05:58:03;99614.97;;;8.51;67.55
69855;BME280;57146;48.140;16.304;2023-05-01T06:00:30;99621.72;;;8.57;67.01
69855;BME280;57146;48.140;16.304;2023-05-01T06:03:02;99621.41;;;8.63;68.21
69855;BME280;57146;48.140;16.304;2023-05-01T06:05:31;99617.91;;;8.73;67.13
69855;BME280;57146;48.140;16.304;2023-05-01T06:07:59;99617.50;;;8.85;67.05
69855;BME280;57146;48.140;16.304;2023-05-01T06:10:28;99610.84;;;8.93;68.20
69855;BME280;57146;48.140;16.304;2023-05-01T06:12:54;99616.50;;;9.05;67.32
69855;BME280;57146;48.140;16.304;2023-05-01T06:15:47;99608.44;;;9.20;67.13
69855;BME280;57146;48.140;16.304;2023-05-01T06:18:15;99599.34;;;9.31;67.21
69855;BME280;57146;48.140;16.304;2023-05-01T06:20:46;99608.69;;;9.43;67.56
69855;BME280;57146;48.140;16.304;2023-05-01T06:23:14;99611.22;;;9.48;65.93
69855;BME280;57146;48.140;16.304;2023-05-01T06:25:49;99615.38;;;9.54;67.49
69855;BME280;57146;48.140;16.304;2023-05-01T06:28:17;99616.34;;;9.58;65.95
69855;BME280;57146;48.140;16.304;2023-05-01T06:30:45;99612.09;;;9.62;65.99
69855;BME280;57146;48.140;16.304;2023-05-01T06:33:12;99617.47;;;9.71;65.65
69855;BME280;57146;48.140;16.304;2023-05-01T06:35:42;99617.63;;;9.79;65.94
69855;BME280;57146;48.140;16.304;2023-05-01T06:38:08;99613.28;;;9.89;64.72
69855;BME280;57146;48.140;16.304;2023-05-01T06:40:36;99615.53;;;9.95;66.02
69855;BME280;57146;48.140;16.304;2023-05-01T06:43:07;99609.34;;;10.05;65.23
69855;BME280;57146;48.140;16.304;2023-05-01T06:45:34;99606.56;;;10.15;65.11
69855;BME280;57146;48.140;16.304;2023-05-01T06:48:03;99606.97;;;10.22;64.86
69855;BME280;57146;48.140;16.304;2023-05-01T06:50:30;99614.22;;;10.30;63.93
69855;BME280;57146;48.140;16.304;2023-05-01T06:52:59;99613.06;;;10.37;65.08
69855;BME280;57146;48.140;16.304;2023-05-01T06:55:26;99602.66;;;10.45;65.02
69855;BME280;57146;48.140;16.304;2023-05-01T06:57:54;99609.91;;;10.53;64.64
69855;BME280;57146;48.140;16.304;2023-05-01T07:00:21;99609.72;;;10.64;64.39
69855;BME280;57146;48.140;16.304;2023-05-01T07:03:12;99609.03;;;10.72;64.16
69855;BME280;57146;48.140;16.304;2023-05-01T07:05:39;99607.88;;;10.78;64.32
69855;BME280;57146;48.140;16.304;2023-05-01T07:08:06;99610.72;;;10.82;65.34
69855;BME280;57146;48.140;16.304;2023-05-01T07:10:34;99608.47;;;10.89;65.49
69855;BME280;57146;48.140;16.304;2023-05-01T07:13:00;99613.63;;;10.94;64.70
69855;BME280;57146;48.140;16.304;2023-05-01T07:15:27;99610.69;;;10.95;63.42
69855;BME280;57146;48.140;16.304;2023-05-01T07:17:56;99607.97;;;11.00;62.87
69855;BME280;57146;48.140;16.304;2023-05-01T07:20:23;99606.28;;;11.05;62.87
69855;BME280;57146;48.140;16.304;2023-05-01T07:22:50;99609.63;;;11.10;63.63
69855;BME280;57146;48.140;16.304;2023-05-01T07:25:18;99600.13;;;11.09;62.74
69855;BME280;57146;48.140;16.304;2023-05-01T07:27:44;99611.19;;;11.11;61.75
69855;BME280;57146;48.140;16.304;2023-05-01T07:30:13;99608.44;;;11.16;63.15
69855;BME280;57146;48.140;16.304;2023-05-01T07:32:40;99597.31;;;11.19;62.60
69855;BME280;57146;48.140;16.304;2023-05-01T07:35:07;99612.72;;;11.26;61.82
69855;BME280;57146;48.140;16.304;2023-05-01T07:37:35;99607.81;;;11.33;61.68
69855;BME280;57146;48.140;16.304;2023-05-01T07:40:02;99605.06;;;11.38;61.73
69855;BME280;57146;48.140;16.304;2023-05-01T07:42:30;99594.63;;;11.47;61.61
69855;BME280;57146;48.140;16.304;2023-05-01T07:45:20;99597.81;;;11.58;62.01
69855;BME280;57146;48.140;16.304;2023-05-01T07:47:47;99591.63;;;11.62;61.85
69855;BME280;57146;48.140;16.304;2023-05-01T07:50:16;99591.13;;;11.74;62.99
69855;BME280;57146;48.140;16.304;2023-05-01T07:52:43;99589.13;;;11.80;63.45
69855;BME280;57146;48.140;16.304;2023-05-01T07:55:11;99584.25;;;11.87;62.19
69855;BME280;57146;48.140;16.304;2023-05-01T07:57:37;99586.47;;;11.93;62.92
69855;BME280;57146;48.140;16.304;2023-05-01T08:00:10;99582.81;;;12.03;62.40
69855;BME280;57146;48.140;16.304;2023-05-01T08:02:39;99583.94;;;12.11;61.63
69855;BME280;57146;48.140;16.304;2023-05-01T08:05:08;99583.53;;;12.17;62.66
69855;BME280;57146;48.140;16.304;2023-05-01T08:07:35;99579.81;;;12.27;62.10
69855;BME280;57146;48.140;16.304;2023-05-01T08:10:02;99585.63;;;12.38;63.39
69855;BME280;57146;48.140;16.304;2023-05-01T08:12:29;99582.44;;;12.50;61.70
69855;BME280;57146;48.140;16.304;2023-05-01T08:15:22;99579.53;;;12.60;61.78
69855;BME280;57146;48.140;16.304;2023-05-01T08:17:50;99571.94;;;12.67;61.64
69855;BME280;57146;48.140;16.304;2023-05-01T08:20:16;99579.75;;;12.81;62.45
69855;BME280;57146;48.140;16.304;2023-05-01T08:22:43;99563.91;;;12.89;62.14
69855;BME280;57146;48.140;16.304;2023-05-01T08:25:10;99573.28;;;12.96;61.85
69855;BME280;57146;48.140;16.304;2023-05-01T08:27:38;99572.81;;;13.02;62.71
69855;BME280;57146;48.140;16.304;2023-05-01T08:30:06;99567.84;;;13.09;62.02
69855;BME280;57146;48.140;16.304;2023-05-01T08:32:35;99567.22;;;13.12;62.33
69855;BME280;57146;48.140;16.304;2023-05-01T08:35:02;99572.06;;;13.19;61.67
69855;BME280;57146;48.140;16.304;2023-05-01T08:37:29;99571.94;;;13.24;61.60
69855;BME280;57146;48.140;16.304;2023-05-01T08:39:56;99560.59;;;13.24;60.95
69855;BME280;57146;48.140;16.304;2023-05-01T08:42:25;99556.25;;;13.36;62.67
69855;BME280;57146;48.140;16.304;2023-05-01T08:44:58;99565.72;;;13.46;61.71
69855;BME280;57146;48.140;16.304;2023-05-01T08:47:27;99563.22;;;13.58;62.84
69855;BME280;57146;48.140;16.304;2023-05-01T08:49:55;99559.06;;;13.66;62.18
69855;BME280;57146;48.140;16.304;2023-05-01T08:52:47;99556.88;;;13.77;61.67
69855;BME280;57146;48.140;16.304;2023-05-01T08:55:18;99549.22;;;13.84;61.38
69855;BME280;57146;48.140;16.304;2023-05-01T08:57:47;99545.31;;;13.90;60.88
69855;BME280;57146;48.140;16.304;2023-05-01T09:00:19;99544.97;;;14.00;60.60
69855;BME280;57146;48.140;16.304;2023-05-01T09:02:49;99533.91;;;14.07;60.74
69855;BME280;57146;48.140;16.304;2023-05-01T09:05:17;99530.44;;;14.15;60.73
69855;BME280;57146;48.140;16.304;2023-05-01T09:07:46;99527.78;;;14.24;60.32
69855;BME280;57146;48.140;16.304;2023-05-01T09:10:17;99522.44;;;14.41;58.39
69855;BME280;57146;48.140;16.304;2023-05-01T09:12:48;99518.78;;;14.54;57.99
69855;BME280;57146;48.140;16.304;2023-05-01T09:15:21;99517.97;;;14.63;58.86
69855;BME280;57146;48.140;16.304;2023-05-01T09:17:49;99517.16;;;14.71;57.04
69855;BME280;57146;48.140;16.304;2023-05-01T09:20:17;99516.78;;;14.81;57.10
69855;BME280;57146;48.140;16.304;2023-05-01T09:22:46;99512.84;;;14.87;56.67
69855;BME280;57146;48.140;16.304;2023-05-01T09:25:13;99505.59;;;14.96;57.42
69855;BME280;57146;48.140;16.304;2023-05-01T09:27:41;99504.31;;;15.02;56.52
69855;BME280;57146;48.140;16.304;2023-05-01T09:30:08;99508.78;;;15.11;56.17
69855;BME280;57146;48.140;16.304;2023-05-01T09:32:36;99497.88;;;15.12;55.38
69855;BME280;57146;48.140;16.304;2023-05-01T09:37:37;99498.91;;;15.20;55.18
69855;BME280;57146;48.140;16.304;2023-05-01T09:40:12;99497.44;;;15.22;55.33
69855;BME280;57146;48.140;16.304;2023-05-01T09:42:51;99496.94;;;15.29;56.52
69855;BME280;57146;48.140;16.304;2023-05-01T09:45:18;99497.19;;;15.36;55.94
69855;BME280;57146;48.140;16.304;2023-05-01T09:47:46;99492.13;;;15.43;54.96
69855;BME280;57146;48.140;16.304;2023-05-01T09:52:56;99493.50;;;15.62;55.75
69855;BME280;57146;48.140;16.304;2023-05-01T09:55:23;99477.09;;;15.68;56.53
69855;BME280;57146;48.140;16.304;2023-05-01T09:57:52;99481.22;;;15.78;54.61
69855;BME280;57146;48.140;16.304;2023-05-01T10:00:19;99484.88;;;15.86;52.96
69855;BME280;57146;48.140;16.304;2023-05-01T10:02:48;99486.09;;;15.88;54.00
69855;BME280;57146;48.140;16.304;2023-05-01T10:05:17;99478.91;;;15.89;53.67
69855;BME280;57146;48.140;16.304;2023-05-01T10:07:59;99477.13;;;15.93;54.55
69855;BME280;57146;48.140;16.304;2023-05-01T10:10:28;99470.19;;;16.00;53.27
69855;BME280;57146;48.140;16.304;2023-05-01T10:12:55;99466.88;;;16.03;52.62
69855;BME280;57146;48.140;16.304;2023-05-01T10:15:35;99468.97;;;16.10;53.34
69855;BME280;57146;48.140;16.304;2023-05-01T10:18:02;99474.84;;;16.16;53.66
69855;BME280;57146;48.140;16.304;2023-05-01T10:20:31;99471.53;;;16.19;53.93
69855;BME280;57146;48.140;16.304;2023-05-01T10:22:58;99466.66;;;16.21;53.08
69855;BME280;57146;48.140;16.304;2023-05-01T10:25:28;99470.31;;;16.28;54.59
69855;BME280;57146;48.140;16.304;2023-05-01T10:27:55;99465.09;;;16.32;53.32
69855;BME280;57146;48.140;16.304;2023-05-01T10:30:25;99462.47;;;16.44;55.91
69855;BME280;57146;48.140;16.304;2023-05-01T10:32:52;99458.00;;;16.48;55.07
69855;BME280;57146;48.140;16.304;2023-05-01T10:35:22;99458.53;;;16.54;55.55
69855;BME280;57146;48.140;16.304;2023-05-01T10:38:00;99453.34;;;16.58;53.20
69855;BME280;57146;48.140;16.304;2023-05-01T10:40:43;99445.81;;;16.60;54.40
69855;BME280;57146;48.140;16.304;2023-05-01T10:45:54;99442.47;;;16.75;52.78
69855;BME280;57146;48.140;16.304;2023-05-01T10:51:08;99439.59;;;16.80;53.59
69855;BME280;57146;48.140;16.304;2023-05-01T10:53:35;99435.84;;;16.81;52.60
69855;BME280;57146;48.140;16.304;2023-05-01T10:56:03;99427.63;;;16.86;52.67
69855;BME280;57146;48.140;16.304;2023-05-01T11:01:28;99421.25;;;17.03;52.88
69855;BME280;57146;48.140;16.304;2023-05-01T11:12:09;99405.47;;;17.10;51.89
69855;BME280;57146;48.140;16.304;2023-05-01T11:20:10;99402.69;;;17.19;52.76
69855;BME280;57146;48.140;16.304;2023-05-01T11:22:39;99399.00;;;17.23;52.52
69855;BME280;57146;48.140;16.304;2023-05-01T11:25:20;99401.16;;;17.34;51.51
69855;BME280;57146;48.140;16.304;2023-05-01T11:27:51;99394.22;;;17.29;52.85
69855;BME280;57146;48.140;16.304;2023-05-01T11:30:20;99387.41;;;17.32;51.42
69855;BME280;57146;48.140;16.304;2023-05-01T11:32:51;99387.84;;;17.34;52.24
69855;BME280;57146;48.140;16.304;2023-05-01T11:35:20;99389.16;;;17.40;52.53
69855;BME280;57146;48.140;16.304;2023-05-01T11:37:49;99393.78;;;17.43;52.20
69855;BME280;57146;48.140;16.304;2023-05-01T11:40:24;99387.00;;;17.45;51.81
69855;BME280;57146;48.140;16.304;2023-05-01T11:45:35;99376.22;;;17.54;51.51
69855;BME280;57146;48.140;16.304;2023-05-01T11:48:13;99381.34;;;17.63;51.95
69855;BME280;57146;48.140;16.304;2023-05-01T11:50:42;99363.84;;;17.62;51.97
69855;BME280;57146;48.140;16.304;2023-05-01T11:53:14;99369.25;;;17.65;51.55
69855;BME280;57146;48.140;16.304;2023-05-01T11:55:42;99361.94;;;17.62;51.94
69855;BME280;57146;48.140;16.304;2023-05-01T11:58:10;99364.69;;;17.66;51.62
69855;BME280;57146;48.140;16.304;2023-05-01T12:00:39;99363.91;;;17.65;51.06
69855;BME280;57146;48.140;16.304;2023-05-01T12:03:11;99364.16;;;17.60;51.51
69855;BME280;57146;48.140;16.304;2023-05-01T12:05:42;99345.38;;;17.53;51.48
69855;BME280;57146;48.140;16.304;2023-05-01T12:08:15;99369.22;;;17.50;51.59
69855;BME280;57146;48.140;16.304;2023-05-01T12:10:44;99365.72;;;17.45;51.30
69855;BME280;57146;48.140;16.304;2023-05-01T12:13:12;99359.88;;;17.40;51.38
69855;BME280;57146;48.140;16.304;2023-05-01T12:15:45;99354.22;;;17.41;52.34
69855;BME280;57146;48.140;16.304;2023-05-01T12:18:13;99353.09;;;17.42;50.98
69855;BME280;57146;48.140;16.304;2023-05-01T12:20:42;99355.84;;;17.46;51.78
69855;BME280;57146;48.140;16.304;2023-05-01T12:23:11;99344.88;;;17.47;51.81
69855;BME280;57146;48.140;16.304;2023-05-01T12:25:39;99338.34;;;17.45;51.70
69855;BME280;57146;48.140;16.304;2023-05-01T12:30:43;99337.97;;;17.46;52.36
69855;BME280;57146;48.140;16.304;2023-05-01T12:33:18;99342.22;;;17.47;51.56
69855;BME280;57146;48.140;16.304;2023-05-01T12:35:48;99340.41;;;17.52;51.96
69855;BME280;57146;48.140;16.304;2023-05-01T12:38:19;99339.28;;;17.53;51.93
69855;BME280;57146;48.140;16.304;2023-05-01T12:40:55;99349.41;;;17.47;51.73
69855;BME280;57146;48.140;16.304;2023-05-01T12:43:32;99331.81;;;17.42;51.07
69855;BME280;57146;48.140;16.304;2023-05-01T12:46:01;99336.28;;;17.38;50.93
69855;BME280;57146;48.140;16.304;2023-05-01T12:48:31;99328.66;;;17.37;51.46
69855;BME280;57146;48.140;16.304;2023-05-01T12:50:59;99330.19;;;17.38;51.38
69855;BME280;57146;48.140;16.304;2023-05-01T12:53:29;99331.72;;;17.39;51.50
69855;BME280;57146;48.140;16.304;2023-05-01T12:56:22;99317.56;;;17.35;51.49
69855;BME280;57146;48.140;16.304;2023-05-01T12:58:52;99316.69;;;17.31;52.01
69855;BME280;57146;48.140;16.304;2023-05-01T13:01:44;99310.94;;;17.29;51.52
69855;BME280;57146;48.140;16.304;2023-05-01T13:04:20;99313.69;;;17.32;52.73
69855;BME280;57146;48.140;16.304;2023-05-01T13:06:49;99302.38;;;17.35;52.17
69855;BME280;57146;48.140;16.304;2023-05-01T13:09:24;99296.34;;;17.38;52.04
69855;BME280;57146;48.140;16.304;2023-05-01T13:11:59;99291.47;;;17.40;52.02
69855;BME280;57146;48.140;16.304;2023-05-01T13:14:28;99285.38;;;17.40;51.31
69855;BME280;57146;48.140;16.304;2023-05-01T13:17:01;99289.91;;;17.39;51.73
69855;BME280;57146;48.140;16.304;2023-05-01T13:19:28;99282.38;;;17.41;51.42
69855;BME280;57146;48.140;16.304;2023-05-01T13:21:56;99285.47;;;17.43;52.53
69855;BME280;57146;48.140;16.304;2023-05-01T13:24:35;99279.44;;;17.46;51.29
69855;BME280;57146;48.140;16.304;2023-05-01T13:27:02;99282.44;;;17.45;51.05
69855;BME280;57146;48.140;16.304;2023-05-01T13:29:55;99280.56;;;17.45;51.15
69855;BME280;57146;48.140;16.304;2023-05-01T13:32:30;99271.88;;;17.48;50.84
69855;BME280;57146;48.140;16.304;2023-05-01T13:35:01;99278.66;;;17.46;50.79
69855;BME280;57146;48.140;16.304;2023-05-01T13:37:28;99270.69;;;17.46;51.46
69855;BME280;57146;48.140;16.304;2023-05-01T13:39:56;99268.78;;;17.46;51.33
69855;BME280;57146;48.140;16.304;2023-05-01T13:42:24;99266.94;;;17.47;51.04
69855;BME280;57146;48.140;16.304;2023-05-01T13:44:52;99254.81;;;17.50;51.93
69855;BME280;57146;48.140;16.304;2023-05-01T13:47:21;99256.31;;;17.66;50.23
69855;BME280;57146;48.140;16.304;2023-05-01T13:49:49;99248.81;;;17.88;49.76
69855;BME280;57146;48.140;16.304;2023-05-01T13:52:18;99239.94;;;18.00;47.93
69855;BME280;57146;48.140;16.304;2023-05-01T13:54:47;99242.03;;;18.10;49.68
69855;BME280;57146;48.140;16.304;2023-05-01T13:57:16;99245.97;;;18.16;48.22
69855;BME280;57146;48.140;16.304;2023-05-01T13:59:45;99244.28;;;18.27;48.29
69855;BME280;57146;48.140;16.304;2023-05-01T14:02:30;99240.44;;;18.25;48.49